Time;durP1;ratioP1;P1;durP2;ratioP2;P2;SDS_P1;SDS_P2;PMS_P1;PMS_P2;Temp;Humidity;BMP_temperature;BMP_pressure;BME280_temperature;BME280_humidity;BME280_pressure;Samples;Min_cycle;Max_cycle;Signal;HPM_P1;HPM_P2
2021/04/22 00:02:17;;;;;;;8.48;3.35;;;6.10;1.00;;;;;;5011201;28;20214;-80
2021/04/22 00:04:43;;;;;;;7.00;4.15;;;6.10;1.00;;;;;;5009361;28;20278;-81
2021/04/22 00:07:10;;;;;;;14.02;4.55;;;6.00;1.00;;;;;;5012855;28;20223;-80
2021/04/22 00:09:39;;;;;;;8.60;4.50;;;6.00;1.00;;;;;;5011877;28;20254;-81
2021/04/22 00:12:07;;;;;;;11.43;4.22;;;5.90;1.00;;;;;;4997618;28;20227;-81
2021/04/22 00:14:39;;;;;;;11.57;4.15;;;5.90;1.00;;;;;;5012419;28;20234;-81
2021/04/22 00:17:08;;;;;;;11.02;3.90;;;5.90;1.00;;;;;;5015987;28;20230;-81
2021/04/22 00:19:36;;;;;;;8.60;3.63;;;5.80;1.00;;;;;;5019315;28;20219;-79
2021/04/22 00:22:03;;;;;;;12.93;4.05;;;5.80;1.00;;;;;;4997861;28;20222;-81
2021/04/22 00:24:31;;;;;;;13.52;3.70;;;5.80;1.00;;;;;;5017249;28;20191;-81
2021/04/22 00:27:03;;;;;;;8.07;4.03;;;5.80;1.00;;;;;;5001771;28;20223;-80
2021/04/22 00:29:30;;;;;;;10.23;4.07;;;5.80;1.00;;;;;;4993095;28;20239;-80
2021/04/22 00:31:56;;;;;;;10.93;4.07;;;5.80;1.00;;;;;;4995209;28;20247;-83
2021/04/22 00:34:29;;;;;;;14.73;4.32;;;5.90;1.00;;;;;;4994492;28;20318;-84
2021/04/22 00:36:59;;;;;;;12.30;4.60;;;6.00;1.00;;;;;;5005677;28;21053;-84
2021/04/22 00:39:25;;;;;;;15.13;4.40;;;6.10;1.00;;;;;;5008467;28;20238;-82
2021/04/22 00:41:52;;;;;;;11.02;4.18;;;6.20;1.00;;;;;;5010506;28;20220;-84
2021/04/22 00:44:21;;;;;;;13.65;4.15;;;6.20;1.00;;;;;;5012950;28;20225;-83
2021/04/22 00:46:48;;;;;;;8.23;4.07;;;6.30;1.00;;;;;;4992487;28;20770;-82
2021/04/22 00:49:15;;;;;;;9.20;4.80;;;6.30;1.00;;;;;;4994284;28;20305;-83
2021/04/22 00:51:42;;;;;;;8.70;4.35;;;6.30;1.00;;;;;;4990205;28;20311;-82
2021/04/22 00:54:11;;;;;;;12.90;4.93;;;6.30;1.00;;;;;;4995664;28;20231;-83
2021/04/22 00:56:43;;;;;;;9.93;3.42;;;6.40;1.00;;;;;;4990422;28;20278;-83
2021/04/22 00:59:10;;;;;;;12.35;4.65;;;6.40;1.00;;;;;;4998562;28;20502;-83
2021/04/22 01:01:37;;;;;;;7.75;4.05;;;6.40;1.00;;;;;;5009278;28;20223;-83
2021/04/22 01:04:05;;;;;;;8.95;3.97;;;6.50;1.00;;;;;;4996126;28;20270;-83
2021/04/22 01:06:32;;;;;;;7.35;3.47;;;6.50;1.00;;;;;;5008396;28;20271;-83
2021/04/22 01:09:02;;;;;;;8.95;3.53;;;6.50;1.00;;;;;;5008508;28;20329;-84
2021/04/22 01:11:31;;;;;;;9.10;4.15;;;6.50;1.00;;;;;;5005500;28;20583;-83
2021/04/22 01:13:57;;;;;;;14.20;4.13;;;6.50;1.00;;;;;;4995808;28;20223;-83
2021/04/22 01:16:24;;;;;;;9.05;3.63;;;6.60;1.00;;;;;;4999901;28;20294;-84
2021/04/22 01:18:55;;;;;;;9.32;3.75;;;6.60;1.00;;;;;;5005713;28;20242;-83
2021/04/22 01:21:26;;;;;;;11.18;4.30;;;6.70;1.00;;;;;;4997057;28;20234;-83
2021/04/22 01:23:53;;;;;;;10.32;4.05;;;6.70;1.00;;;;;;5005056;28;20240;-83
2021/04/22 01:26:23;;;;;;;7.07;3.97;;;6.70;1.00;;;;;;4995186;28;20232;-83
2021/04/22 01:28:50;;;;;;;8.23;3.78;;;6.70;1.00;;;;;;5014105;28;21393;-83
2021/04/22 01:31:18;;;;;;;7.90;3.40;;;6.70;1.00;;;;;;5002170;28;20231;-84
2021/04/22 01:33:47;;;;;;;11.00;4.03;;;6.70;1.00;;;;;;4987982;28;20286;-82
2021/04/22 01:36:14;;;;;;;7.20;3.70;;;6.70;1.00;;;;;;4994990;28;20234;-84
2021/04/22 01:38:41;;;;;;;10.32;4.05;;;6.70;1.00;;;;;;5010952;28;20404;-80
2021/04/22 01:41:07;;;;;;;8.32;3.95;;;6.70;1.00;;;;;;5014593;28;20223;-81
2021/04/22 01:43:35;;;;;;;4.10;3.38;;;6.70;1.00;;;;;;4998649;28;20249;-81
2021/04/22 01:46:01;;;;;;;13.75;4.03;;;6.70;1.00;;;;;;4993582;28;20226;-83
2021/04/22 01:48:28;;;;;;;8.77;4.75;;;6.60;1.00;;;;;;5013398;28;20258;-82
2021/04/22 01:50:56;;;;;;;10.15;4.55;;;6.60;1.00;;;;;;5014572;28;20223;-83
2021/04/22 01:53:25;;;;;;;12.52;4.40;;;6.60;1.00;;;;;;5017316;28;20211;-83
2021/04/22 01:55:53;;;;;;;11.50;4.30;;;6.60;1.00;;;;;;4990004;28;20231;-82
2021/04/22 01:58:22;;;;;;;8.85;4.30;;;6.60;1.00;;;;;;4984333;28;20226;-84
2021/04/22 02:00:54;;;;;;;10.77;4.20;;;6.60;1.00;;;;;;4993948;28;20428;-84
2021/04/22 02:03:22;;;;;;;9.63;4.20;;;6.50;1.00;;;;;;5010644;28;20232;-84
2021/04/22 02:05:49;;;;;;;12.60;4.30;;;6.60;1.00;;;;;;4993623;28;21615;-83
2021/04/22 02:08:16;;;;;;;10.50;4.90;;;6.60;1.00;;;;;;4992711;28;22144;-83
2021/04/22 02:10:48;;;;;;;14.68;5.45;;;6.60;1.00;;;;;;5013623;28;20238;-84
2021/04/22 02:13:17;;;;;;;8.65;4.05;;;6.60;1.00;;;;;;4990939;28;20915;-83
2021/04/22 02:15:44;;;;;;;11.43;4.25;;;6.60;1.00;;;;;;5010272;28;20224;-83
2021/04/22 02:18:11;;;;;;;13.27;4.50;;;6.50;1.00;;;;;;4997786;28;20220;-83
2021/04/22 02:20:39;;;;;;;11.15;4.07;;;6.50;1.00;;;;;;4999785;28;20245;-83
2021/04/22 02:23:06;;;;;;;12.10;4.85;;;6.50;1.00;;;;;;4998145;28;20223;-83
2021/04/22 02:25:33;;;;;;;11.00;5.40;;;6.40;1.00;;;;;;4992786;28;20255;-84
2021/04/22 02:28:00;;;;;;;10.13;4.63;;;6.50;1.00;;;;;;5009903;28;20246;-84
2021/04/22 02:30:33;;;;;;;16.75;4.97;;;6.40;1.00;;;;;;5006370;28;20264;-83
2021/04/22 02:33:04;;;;;;;7.28;4.20;;;6.40;1.00;;;;;;5007605;28;20223;-83
2021/04/22 02:35:34;;;;;;;12.57;4.18;;;6.40;1.00;;;;;;5007932;28;20986;-82
2021/04/22 02:38:03;;;;;;;10.35;4.63;;;6.40;1.00;;;;;;5006895;28;20294;-82
2021/04/22 02:40:32;;;;;;;7.53;4.22;;;6.50;1.00;;;;;;5010463;28;20228;-82
2021/04/22 02:43:02;;;;;;;8.95;4.40;;;6.40;1.00;;;;;;4995858;28;20263;-83
2021/04/22 02:45:35;;;;;;;9.30;4.35;;;6.40;1.00;;;;;;5006758;28;20229;-83
2021/04/22 02:48:03;;;;;;;7.95;3.78;;;6.40;1.00;;;;;;4997269;28;20227;-83
2021/04/22 02:50:33;;;;;;;10.02;4.25;;;6.30;1.00;;;;;;4995256;28;20242;-83
2021/04/22 02:53:00;;;;;;;15.32;4.15;;;6.30;1.00;;;;;;4994703;28;20223;-82
2021/04/22 02:55:26;;;;;;;12.25;5.75;;;6.30;1.00;;;;;;5011534;28;20993;-83
2021/04/22 02:57:53;;;;;;;11.32;5.20;;;6.30;1.00;;;;;;5013463;28;20238;-83
2021/04/22 03:00:22;;;;;;;17.52;4.38;;;6.30;1.00;;;;;;5009116;28;20284;-84
2021/04/22 03:02:50;;;;;;;14.48;5.55;;;6.30;1.00;;;;;;4998846;28;20294;-84
2021/04/22 03:05:19;;;;;;;17.52;5.30;;;6.30;1.00;;;;;;5012220;28;20239;-85
2021/04/22 03:07:46;;;;;;;9.57;4.22;;;6.30;1.00;;;;;;4996071;28;20233;-82
2021/04/22 03:10:18;;;;;;;10.75;4.10;;;6.30;1.00;;;;;;5015459;28;20291;-82
2021/04/22 03:12:45;;;;;;;9.63;5.10;;;6.30;1.00;;;;;;5019466;28;20283;-83
2021/04/22 03:15:13;;;;;;;11.75;5.32;;;6.30;1.00;;;;;;5024656;28;20226;-84
2021/04/22 03:17:40;;;;;;;10.27;4.93;;;6.30;1.00;;;;;;5023623;28;20246;-82
2021/04/22 03:20:16;;;;;;;7.78;4.20;;;6.30;1.00;;;;;;5002359;28;20235;-84
2021/04/22 03:22:49;;;;;;;7.82;4.35;;;6.30;1.00;;;;;;4990607;28;20230;-82
2021/04/22 03:25:18;;;;;;;9.45;4.95;;;6.30;1.00;;;;;;5013906;28;20235;-83
2021/04/22 03:27:44;;;;;;;9.52;4.18;;;6.30;1.00;;;;;;5007289;28;20223;-80
2021/04/22 03:30:16;;;;;;;11.20;3.92;;;6.30;1.00;;;;;;4993734;28;20299;-79
2021/04/22 03:32:44;;;;;;;9.20;4.93;;;6.30;1.00;;;;;;5005242;28;20226;-83
2021/04/22 03:35:13;;;;;;;10.40;5.22;;;6.30;1.00;;;;;;5012614;28;20246;-83
2021/04/22 03:37:40;;;;;;;12.25;4.10;;;6.30;1.00;;;;;;5007611;28;21178;-83
2021/04/22 03:40:10;;;;;;;13.02;4.13;;;6.30;1.00;;;;;;4993385;28;20278;-84
2021/04/22 03:42:39;;;;;;;11.70;5.28;;;6.30;1.00;;;;;;4998466;28;21408;-83
2021/04/22 03:45:08;;;;;;;15.10;4.65;;;6.20;1.00;;;;;;4996267;28;20231;-83
2021/04/22 03:47:35;;;;;;;10.70;4.85;;;6.20;1.00;;;;;;4999186;28;21064;-83
2021/04/22 03:50:03;;;;;;;10.52;5.35;;;6.30;1.00;;;;;;5013611;28;20234;-83
2021/04/22 03:52:32;;;;;;;9.98;4.28;;;6.30;1.00;;;;;;5022059;28;20316;-83
2021/04/22 03:55:01;;;;;;;12.38;4.75;;;6.20;1.00;;;;;;4998464;28;20262;-80
2021/04/22 03:57:28;;;;;;;19.25;4.70;;;6.10;1.00;;;;;;4999361;28;20227;-80
2021/04/22 03:59:54;;;;;;;10.98;4.57;;;6.10;1.00;;;;;;5017772;28;20242;-80
2021/04/22 04:02:21;;;;;;;12.00;4.85;;;6.20;1.00;;;;;;5012193;28;20524;-81
2021/04/22 04:04:51;;;;;;;12.75;4.18;;;6.20;1.00;;;;;;5016649;28;20226;-83
2021/04/22 04:07:17;;;;;;;8.48;4.05;;;6.30;1.00;;;;;;5021232;28;20292;-84
2021/04/22 04:09:45;;;;;;;13.30;4.70;;;6.30;1.00;;;;;;5016851;28;20238;-83
2021/04/22 04:12:12;;;;;;;9.88;4.15;;;6.30;1.00;;;;;;5019107;28;20246;-83
2021/04/22 04:14:39;;;;;;;9.02;4.55;;;6.30;1.00;;;;;;5002232;28;20219;-84
2021/04/22 04:17:09;;;;;;;10.75;3.45;;;6.30;1.00;;;;;;5005129;28;20227;-85
2021/04/22 04:19:36;;;;;;;9.00;4.47;;;6.30;1.00;;;;;;5021504;28;20215;-83
2021/04/22 04:22:02;;;;;;;13.75;4.80;;;6.30;1.00;;;;;;5022080;28;20237;-83
2021/04/22 04:24:29;;;;;;;17.15;5.13;;;6.30;1.00;;;;;;4995719;28;21007;-80
2021/04/22 04:26:57;;;;;;;8.15;3.85;;;6.30;1.00;;;;;;5016177;28;20222;-83
2021/04/22 04:29:23;;;;;;;10.50;4.78;;;6.20;1.00;;;;;;5019649;28;20234;-83
2021/04/22 04:31:50;;;;;;;10.38;4.05;;;6.20;1.00;;;;;;5024455;28;20215;-80
2021/04/22 04:34:17;;;;;;;12.20;5.88;;;6.30;1.00;;;;;;5013121;28;20235;-82
2021/04/22 04:36:46;;;;;;;10.98;4.45;;;6.30;1.00;;;;;;4999628;28;20359;-80
2021/04/22 04:39:15;;;;;;;8.57;4.68;;;6.40;1.00;;;;;;5013538;28;20231;-80
2021/04/22 04:41:43;;;;;;;16.90;4.22;;;6.40;1.00;;;;;;5013119;28;21402;-81
2021/04/22 04:44:11;;;;;;;12.98;5.97;;;6.50;1.00;;;;;;4998666;28;20228;-83
2021/04/22 04:46:40;;;;;;;10.40;4.20;;;6.50;1.00;;;;;;5024973;28;20342;-80
2021/04/22 04:49:07;;;;;;;13.25;3.92;;;6.50;1.00;;;;;;5024332;28;20246;-85
2021/04/22 04:51:35;;;;;;;16.23;5.03;;;6.50;1.00;;;;;;5021309;28;20219;-83
2021/04/22 04:54:02;;;;;;;10.10;4.30;;;6.50;1.00;;;;;;5018937;28;20246;-85
2021/04/22 04:56:29;;;;;;;9.57;3.67;;;6.60;1.00;;;;;;5006591;28;20231;-84
2021/04/22 04:58:58;;;;;;;7.15;3.55;;;6.50;1.00;;;;;;5023287;28;20229;-84
2021/04/22 05:01:25;;;;;;;11.90;5.22;;;6.60;1.00;;;;;;5007884;28;20283;-84
2021/04/22 05:03:52;;;;;;;11.70;5.00;;;6.60;1.00;;;;;;5023481;28;20230;-84
2021/04/22 05:06:24;;;;;;;15.93;4.28;;;6.60;1.00;;;;;;5018323;28;21174;-84
2021/04/22 05:08:51;;;;;;;9.63;3.83;;;6.60;1.00;;;;;;5021260;28;20230;-85
2021/04/22 05:11:20;;;;;;;7.78;4.00;;;6.70;1.00;;;;;;5003437;28;20226;-83
2021/04/22 05:13:51;;;;;;;10.80;5.18;;;6.80;1.00;;;;;;5004895;28;20290;-83
2021/04/22 05:16:18;;;;;;;12.07;3.90;;;6.80;1.00;;;;;;4994154;28;20250;-83
2021/04/22 05:18:46;;;;;;;10.50;4.53;;;6.80;1.00;;;;;;5002586;28;20242;-82
2021/04/22 05:21:13;;;;;;;13.32;3.88;;;6.70;1.00;;;;;;4998264;28;20211;-83
2021/04/22 05:23:39;;;;;;;12.57;3.95;;;6.70;1.00;;;;;;5003736;28;21009;-84
2021/04/22 05:26:06;;;;;;;14.18;5.15;;;6.70;1.00;;;;;;5006295;28;20215;-84
2021/04/22 05:28:32;;;;;;;13.15;4.18;;;6.80;1.00;;;;;;5002339;28;20228;-83
2021/04/22 05:31:02;;;;;;;13.80;5.03;;;6.90;1.00;;;;;;5024373;28;20250;-83
2021/04/22 05:33:28;;;;;;;13.20;3.92;;;6.80;1.00;;;;;;5022650;28;20227;-80
2021/04/22 05:35:56;;;;;;;12.70;4.70;;;6.90;1.00;;;;;;5003708;28;20711;-83
2021/04/22 05:38:26;;;;;;;13.77;5.30;;;6.90;1.00;;;;;;5025869;28;20214;-80
2021/04/22 05:40:52;;;;;;;9.82;4.30;;;7.00;1.00;;;;;;5031292;28;20211;-82
2021/04/22 05:43:19;;;;;;;10.60;4.95;;;7.10;1.00;;;;;;5029414;28;20227;-82
2021/04/22 05:45:46;;;;;;;16.45;4.90;;;7.10;1.00;;;;;;5028719;28;20219;-81
2021/04/22 05:48:13;;;;;;;8.80;4.43;;;7.20;1.00;;;;;;5025471;28;20259;-82
2021/04/22 05:50:40;;;;;;;8.15;4.40;;;7.10;1.00;;;;;;5011944;28;20414;-79
2021/04/22 05:53:13;;;;;;;11.88;5.75;;;7.20;1.00;;;;;;5007073;28;20243;-77
2021/04/22 05:55:39;;;;;;;10.20;5.20;;;7.30;1.00;;;;;;5022948;28;20443;-78
2021/04/22 05:58:06;;;;;;;13.02;7.35;;;7.40;1.00;;;;;;5023890;28;20246;-79
2021/04/22 06:00:41;;;;;;;13.70;5.22;;;7.50;1.00;;;;;;5003945;28;20246;-87
2021/04/22 06:03:07;;;;;;;8.88;4.60;;;7.60;1.00;;;;;;5002202;28;20215;-74
2021/04/22 06:05:36;;;;;;;18.25;4.97;;;7.70;1.00;;;;;;5006172;28;20328;-76
2021/04/22 06:08:03;;;;;;;9.88;4.72;;;7.60;1.00;;;;;;4998460;28;21124;-76
2021/04/22 06:10:31;;;;;;;17.17;5.00;;;7.70;1.00;;;;;;5020812;28;20544;-77
2021/04/22 06:13:02;;;;;;;12.70;7.45;;;7.60;1.00;;;;;;5018357;28;20258;-76
2021/04/22 06:15:32;;;;;;;9.25;5.40;;;7.70;1.00;;;;;;5018535;28;20235;-85
2021/04/22 06:17:59;;;;;;;12.32;4.93;;;7.80;1.00;;;;;;5000648;28;20283;-79
2021/04/22 06:20:27;;;;;;;14.25;5.15;;;7.90;1.00;;;;;;5005889;28;20220;-79
2021/04/22 06:22:56;;;;;;;15.32;6.95;;;8.00;1.00;;;;;;5003289;28;20235;-80
2021/04/22 06:25:25;;;;;;;9.40;4.95;;;8.10;1.00;;;;;;5009269;28;20291;-81
2021/04/22 06:27:53;;;;;;;13.82;6.28;;;8.00;1.00;;;;;;4993428;28;20231;-79
2021/04/22 06:30:24;;;;;;;17.02;6.32;;;8.10;1.00;;;;;;5013611;28;20254;-77
2021/04/22 06:32:51;;;;;;;12.07;4.05;;;8.20;1.00;;;;;;5024319;28;20337;-78
2021/04/22 06:35:18;;;;;;;8.18;4.00;;;8.40;1.00;;;;;;5010473;28;20231;-77
2021/04/22 06:37:45;;;;;;;14.20;3.88;;;8.30;1.00;;;;;;5000911;28;20234;-76
2021/04/22 06:40:18;;;;;;;13.68;4.72;;;8.20;1.00;;;;;;4990211;28;20242;-79
2021/04/22 06:42:45;;;;;;;13.65;7.82;;;8.20;1.00;;;;;;5013204;28;20282;-78
2021/04/22 06:45:15;;;;;;;12.68;4.03;;;8.20;1.00;;;;;;5011206;28;20227;-78
2021/04/22 06:47:42;;;;;;;10.35;4.00;;;8.20;1.00;;;;;;5008317;28;20234;-79
2021/04/22 06:50:12;;;;;;;9.10;4.68;;;8.30;1.00;;;;;;5015776;28;20226;-79
2021/04/22 06:52:48;;;;;;;12.57;4.15;;;8.40;1.00;;;;;;5018786;28;20223;-77
2021/04/22 06:55:20;;;;;;;7.35;3.30;;;8.50;1.00;;;;;;5031495;28;20218;-76
2021/04/22 06:57:48;;;;;;;17.80;5.13;;;8.50;1.00;;;;;;5030488;28;20219;-77
2021/04/22 07:00:26;;;;;;;11.50;3.70;;;8.40;1.00;;;;;;5015584;28;20222;-74
2021/04/22 07:02:59;;;;;;;8.90;3.83;;;8.40;1.00;;;;;;5022544;28;20231;-73
2021/04/22 07:05:25;;;;;;;11.75;4.95;;;8.20;1.00;;;;;;5026880;28;20231;-74
2021/04/22 07:07:52;;;;;;;13.20;4.20;;;8.20;1.00;;;;;;5028869;28;20215;-73
2021/04/22 07:10:19;;;;;;;13.60;3.65;;;8.30;1.00;;;;;;5011761;28;20291;-75
2021/04/22 07:12:46;;;;;;;8.18;3.30;;;8.30;1.00;;;;;;5013150;28;20219;-73
2021/04/22 07:15:14;;;;;;;8.52;3.80;;;8.40;1.00;;;;;;5004393;28;20581;-76
2021/04/22 07:17:41;;;;;;;8.32;3.75;;;8.50;1.00;;;;;;5008605;28;20234;-76
2021/04/22 07:20:12;;;;;;;14.75;5.00;;;8.60;1.00;;;;;;4992025;28;20346;-77
2021/04/22 07:22:39;;;;;;;8.75;4.80;;;8.60;1.00;;;;;;4995493;28;20675;-76
2021/04/22 07:25:06;;;;;;;8.55;3.88;;;8.50;1.00;;;;;;4997676;28;20240;-77
2021/04/22 07:27:33;;;;;;;9.15;3.97;;;8.60;1.00;;;;;;5004934;28;20242;-77
2021/04/22 07:30:00;;;;;;;13.85;5.40;;;8.60;1.00;;;;;;5009027;28;20413;-78
2021/04/22 07:32:26;;;;;;;7.93;3.47;;;8.60;1.00;;;;;;5017406;28;20215;-79
2021/04/22 07:34:54;;;;;;;11.75;5.47;;;8.70;1.00;;;;;;5009366;28;20314;-77
2021/04/22 07:37:21;;;;;;;13.85;5.10;;;8.80;1.00;;;;;;4996044;28;20220;-79
2021/04/22 07:39:47;;;;;;;6.82;3.80;;;8.90;1.00;;;;;;4998323;28;20730;-76
2021/04/22 07:42:19;;;;;;;16.15;4.53;;;9.10;1.00;;;;;;5000839;28;20234;-79
2021/04/22 07:44:55;;;;;;;15.07;5.07;;;9.10;1.00;;;;;;4981956;28;20234;-80
2021/04/22 07:47:21;;;;;;;11.50;4.47;;;9.20;1.00;;;;;;4980176;28;20231;-79
2021/04/22 07:49:48;;;;;;;11.93;3.90;;;9.30;1.00;;;;;;4998780;28;20330;-78
2021/04/22 07:52:20;;;;;;;9.80;4.28;;;9.40;1.00;;;;;;4983422;28;20237;-77
2021/04/22 07:54:54;;;;;;;8.10;3.78;;;9.40;1.00;;;;;;4995331;28;20219;-76
2021/04/22 07:57:20;;;;;;;15.52;4.40;;;9.40;1.00;;;;;;4982420;28;20223;-77
2021/04/22 07:59:47;;;;;;;9.57;3.50;;;9.30;1.00;;;;;;4993271;28;20362;-76
2021/04/22 08:02:13;;;;;;;8.10;3.78;;;9.30;1.00;;;;;;5001898;28;20227;-78
2021/04/22 08:04:40;;;;;;;9.93;4.00;;;9.50;1.00;;;;;;4995142;28;20226;-78
2021/04/22 08:07:09;;;;;;;8.30;4.15;;;9.60;1.00;;;;;;4998046;28;20227;-77
2021/04/22 08:09:39;;;;;;;6.88;4.15;;;9.60;1.00;;;;;;4990798;28;20299;-77
2021/04/22 08:12:06;;;;;;;9.27;3.22;;;9.70;1.00;;;;;;4992183;28;20251;-80
2021/04/22 08:14:34;;;;;;;14.80;4.03;;;9.70;1.00;;;;;;4992749;28;20886;-80
2021/04/22 08:17:03;;;;;;;9.25;3.50;;;9.70;1.00;;;;;;4987840;28;20239;-77
2021/04/22 08:19:32;;;;;;;8.35;2.95;;;9.80;1.00;;;;;;4990206;28;20283;-77
2021/04/22 08:21:59;;;;;;;8.55;4.47;;;9.80;1.00;;;;;;5001683;28;20224;-78
2021/04/22 08:24:25;;;;;;;10.43;4.20;;;9.90;1.00;;;;;;4985063;28;20239;-79
2021/04/22 08:26:53;;;;;;;7.82;2.92;;;10.10;1.00;;;;;;5005904;28;20229;-79
2021/04/22 08:29:20;;;;;;;9.82;3.55;;;10.20;1.00;;;;;;5017502;28;20235;-82
2021/04/22 08:31:47;;;;;;;11.48;3.45;;;10.40;1.00;;;;;;5027827;28;20247;-80
2021/04/22 08:34:14;;;;;;;10.32;4.05;;;10.50;1.00;;;;;;5013323;28;20252;-83
2021/04/22 08:36:44;;;;;;;6.15;2.90;;;10.70;1.00;;;;;;4994238;28;20233;-81
2021/04/22 08:39:11;;;;;;;6.30;3.35;;;10.60;1.00;;;;;;5014274;28;20721;-82
2021/04/22 08:41:40;;;;;;;8.27;3.75;;;10.50;1.00;;;;;;4999342;28;20223;-83
2021/04/22 08:44:08;;;;;;;11.75;4.60;;;10.70;1.00;;;;;;5018444;28;20228;-86
2021/04/22 08:46:38;;;;;;;8.83;4.27;;;10.60;1.00;;;;;;5022033;28;20236;-80
2021/04/22 08:49:09;;;;;;;11.55;3.58;;;10.60;1.00;;;;;;5014309;28;20448;-80
2021/04/22 08:51:39;;;;;;;17.65;5.22;;;10.70;1.00;;;;;;5194885;22;20237;-80
2021/04/22 08:54:09;;;;;;;12.65;4.28;;;10.80;1.00;;;;;;5052437;28;20242;-83
2021/04/22 08:56:38;;;;;;;7.70;3.55;;;11.20;1.00;;;;;;5033642;28;20230;-83
2021/04/22 08:59:16;;;;;;;6.80;2.93;;;11.50;1.00;;;;;;5044962;28;20275;-80
2021/04/22 09:01:46;;;;;;;12.07;4.00;;;11.50;1.00;;;;;;5039459;28;20489;-81
2021/04/22 09:04:13;;;;;;;10.17;3.50;;;11.30;1.00;;;;;;5111926;22;20251;-82
2021/04/22 09:06:42;;;;;;;7.03;3.33;;;11.20;1.00;;;;;;5005301;28;20464;-85
2021/04/22 09:09:10;;;;;;;8.70;3.37;;;11.20;1.00;;;;;;4998662;28;20907;-82
2021/04/22 09:11:43;;;;;;;10.35;3.42;;;11.20;1.00;;;;;;5010548;28;20469;-81
2021/04/22 09:25:42;;;;;;;7.73;3.20;;;12.10;1.00;;;;;;5192052;22;20946;-87
2021/04/22 09:57:27;;;;;;;15.57;3.53;;;14.30;1.00;;;;;;4245938;22;20527;-85
2021/04/22 10:00:03;;;;;;;7.67;2.60;;;14.10;1.00;;;;;;4982626;28;20463;-87
2021/04/22 10:02:53;;;;;;;5.80;3.30;;;13.40;1.00;;;;;;4974247;28;21032;-86
2021/04/22 10:05:36;;;;;;;7.63;3.00;;;12.90;1.00;;;;;;4971088;28;20433;-87
2021/04/22 10:08:05;;;;;;;9.07;3.77;;;12.70;1.00;;;;;;4976183;28;20414;-88
2021/04/22 10:11:14;;;;;;;14.50;3.87;;;12.80;1.00;;;;;;4989987;28;20440;-87
2021/04/22 10:14:02;;;;;;;8.43;3.20;;;14.00;1.00;;;;;;4977080;28;20472;-88
2021/04/22 10:20:06;;;;;;;4.90;2.20;;;17.10;1.00;;;;;;4970969;28;20458;-89
2021/04/22 10:22:55;;;;;;;7.73;2.40;;;17.80;1.00;;;;;;4969020;28;20430;-88
2021/04/22 10:32:27;;;;;;;8.77;3.20;;;15.40;1.00;;;;;;4977888;28;21359;-88
2021/04/22 10:41:51;;;;;;;6.53;2.80;;;17.80;1.00;;;;;;4983704;28;21075;-86
2021/04/22 10:54:27;;;;;;;6.23;2.57;;;15.20;1.00;;;;;;4966960;28;20446;-88
2021/04/22 11:01:03;;;;;;;3.70;2.07;;;19.90;1.00;;;;;;5000469;28;20473;-76
2021/04/22 11:03:38;;;;;;;5.60;2.17;;;20.60;1.00;;;;;;4994504;28;20697;-75
2021/04/22 11:06:07;;;;;;;6.87;1.97;;;21.30;1.00;;;;;;4994305;28;20466;-75
2021/04/22 11:08:37;;;;;;;6.17;2.90;;;19.70;1.00;;;;;;4998051;28;20406;-75
2021/04/22 11:11:19;;;;;;;5.00;2.23;;;17.70;1.00;;;;;;4977468;28;21398;-75
2021/04/22 11:13:46;;;;;;;6.00;2.27;;;16.30;1.00;;;;;;4980206;28;20492;-75
2021/04/22 11:16:13;;;;;;;6.63;2.53;;;15.40;1.00;;;;;;4980348;28;21067;-79
2021/04/22 11:18:45;;;;;;;7.07;2.20;;;15.70;1.00;;;;;;4997258;28;20415;-85
2021/04/22 11:21:31;;;;;;;6.03;2.10;;;17.70;1.00;;;;;;4995550;28;20479;-84
2021/04/22 11:24:04;;;;;;;11.93;2.20;;;20.10;1.00;;;;;;5103908;22;20815;-84
2021/04/22 11:26:35;;;;;;;10.20;2.47;;;20.90;1.00;;;;;;5046781;28;20464;-83
2021/04/22 11:29:14;;;;;;;4.60;2.17;;;19.70;1.00;;;;;;5042660;28;20452;-87
2021/04/22 11:31:50;;;;;;;5.33;2.03;;;18.60;1.00;;;;;;4998256;28;20449;-90
2021/04/22 11:34:56;;;;;;;5.00;2.00;;;18.10;1.00;;;;;;5404039;22;20937;-90
2021/04/22 11:37:26;;;;;;;6.20;1.80;;;17.50;1.00;;;;;;5043915;28;20545;-86
2021/04/22 11:45:19;;;;;;;8.10;2.60;;;18.80;1.00;;;;;;5061623;28;20459;-83
2021/04/22 11:51:32;;;;;;;6.23;1.90;;;16.60;1.00;;;;;;5042979;28;20436;-86
2021/04/22 11:57:31;;;;;;;5.97;2.30;;;15.90;1.00;;;;;;5028832;28;20455;-84
2021/04/22 12:00:01;;;;;;;12.10;2.47;;;18.10;1.00;;;;;;5040924;28;20457;-79
2021/04/22 12:02:34;;;;;;;2.40;2.00;;;19.00;1.00;;;;;;5044760;28;20937;-79
2021/04/22 12:05:01;;;;;;;6.63;2.30;;;18.80;1.00;;;;;;5033193;28;20445;-79
2021/04/22 12:07:38;;;;;;;7.03;3.00;;;18.10;1.00;;;;;;5007567;28;20441;-84
2021/04/22 12:10:16;;;;;;;6.60;2.63;;;17.30;1.00;;;;;;5037208;28;20446;-80
2021/04/22 12:16:19;;;;;;;6.57;2.43;;;15.20;1.00;;;;;;5033565;28;20701;-79
2021/04/22 12:18:53;;;;;;;3.60;1.93;;;14.10;1.00;;;;;;5047586;28;20441;-81
2021/04/22 12:21:35;;;;;;;5.93;2.37;;;13.80;1.00;;;;;;5033778;28;20461;-81
2021/04/22 12:24:08;;;;;;;6.10;2.30;;;13.60;1.00;;;;;;5046708;28;20382;-80
2021/04/22 12:26:37;;;;;;;8.33;3.13;;;13.70;1.00;;;;;;5041160;28;21130;-81
2021/04/22 12:29:07;;;;;;;5.28;2.47;;;14.50;1.00;;;;;;5039233;28;20416;-80
2021/04/22 12:31:37;;;;;;;12.73;7.70;;;16.40;1.00;;;;;;5038403;28;20304;-80
2021/04/22 12:34:10;;;;;;;6.45;2.33;;;18.00;1.00;;;;;;5023262;28;20392;-80
2021/04/22 12:36:38;;;;;;;11.70;2.70;;;18.20;1.00;;;;;;5018088;28;20220;-78
2021/04/22 12:39:06;;;;;;;5.28;2.40;;;17.30;1.00;;;;;;5035805;28;20436;-79
2021/04/22 12:41:35;;;;;;;9.40;3.00;;;15.70;1.00;;;;;;5038868;28;20222;-77
2021/04/22 12:44:08;;;;;;;4.90;2.00;;;14.70;1.00;;;;;;5040264;28;20412;-78
2021/04/22 12:46:34;;;;;;;7.57;2.80;;;14.10;1.00;;;;;;5017185;28;20542;-80
2021/04/22 12:49:02;;;;;;;4.07;2.67;;;13.90;1.00;;;;;;5030375;28;20598;-79
2021/04/22 12:51:32;;;;;;;6.70;2.60;;;13.80;1.00;;;;;;5030906;28;20416;-79
2021/04/22 12:54:02;;;;;;;5.93;2.25;;;14.10;1.00;;;;;;5035597;28;20444;-82
2021/04/22 12:56:33;;;;;;;5.60;1.97;;;14.70;1.00;;;;;;5034685;28;20467;-80
2021/04/22 12:59:15;;;;;;;3.50;2.00;;;15.80;1.00;;;;;;5022366;28;20430;-85
2021/04/22 13:01:41;;;;;;;4.93;2.20;;;17.00;1.00;;;;;;5005604;28;20466;-77
2021/04/22 13:04:12;;;;;;;7.13;2.20;;;16.70;1.00;;;;;;5028528;28;21266;-77
2021/04/22 13:06:42;;;;;;;3.27;1.97;;;16.00;1.00;;;;;;5021025;28;21071;-78
2021/04/22 13:09:10;;;;;;;8.57;2.70;;;15.20;1.00;;;;;;5003197;28;20964;-77
2021/04/22 13:11:38;;;;;;;6.70;3.33;;;14.70;1.00;;;;;;5023811;28;20460;-77
2021/04/22 13:14:07;;;;;;;8.57;2.73;;;14.30;1.00;;;;;;5035120;28;20689;-76
2021/04/22 13:16:49;;;;;;;7.50;3.27;;;13.80;1.00;;;;;;5036343;28;20423;-77
2021/04/22 13:19:22;;;;;;;5.03;2.90;;;13.60;1.00;;;;;;5039712;28;20442;-78
2021/04/22 13:21:54;;;;;;;13.23;3.97;;;13.40;1.00;;;;;;5047222;28;20419;-77
2021/04/22 13:24:22;;;;;;;29.53;5.43;;;13.20;1.00;;;;;;5048815;28;20445;-77
2021/04/22 13:26:55;;;;;;;11.13;3.30;;;12.90;1.00;;;;;;5045266;28;20476;-76
2021/04/22 13:29:23;;;;;;;11.67;3.77;;;12.40;1.00;;;;;;5044993;28;20413;-75
2021/04/22 13:31:59;;;;;;;6.10;2.37;;;12.10;1.00;;;;;;5044796;28;20413;-77
2021/04/22 13:34:27;;;;;;;4.13;2.17;;;11.90;1.00;;;;;;5039043;28;20465;-76
2021/04/22 13:36:57;;;;;;;7.80;2.60;;;12.00;1.00;;;;;;5019656;28;20465;-76
2021/04/22 13:39:27;;;;;;;3.80;1.70;;;12.50;1.00;;;;;;5010573;28;20425;-77
2021/04/22 13:41:56;;;;;;;5.90;2.17;;;13.10;1.00;;;;;;5026928;28;20436;-78
2021/04/22 13:44:29;;;;;;;5.53;2.60;;;13.60;1.00;;;;;;5027726;28;20449;-76
2021/04/22 13:46:59;;;;;;;5.80;2.30;;;13.80;1.00;;;;;;5043254;28;20566;-78
2021/04/22 13:49:27;;;;;;;9.87;3.20;;;14.10;1.00;;;;;;5012895;28;20582;-78
2021/04/22 13:52:06;;;;;;;6.90;3.17;;;14.00;1.00;;;;;;5041587;28;20440;-80
2021/04/22 13:54:58;;;;;;;7.90;2.90;;;13.80;1.00;;;;;;5019640;28;20445;-76
2021/04/22 13:57:29;;;;;;;6.90;2.67;;;13.70;1.00;;;;;;5032172;28;20519;-76
2021/04/22 14:00:09;;;;;;;10.83;3.23;;;13.50;1.00;;;;;;5033242;28;20504;-78
2021/04/22 14:02:46;;;;;;;10.30;2.60;;;13.30;1.00;;;;;;5037432;28;20495;-76
2021/04/22 14:05:16;;;;;;;9.27;2.90;;;13.30;1.00;;;;;;5032442;28;20472;-76
2021/04/22 14:07:56;;;;;;;9.60;2.60;;;13.10;1.00;;;;;;5040603;28;21690;-80
2021/04/22 14:10:29;;;;;;;8.20;3.40;;;12.80;1.00;;;;;;5040759;28;20402;-77
2021/04/22 14:13:00;;;;;;;4.93;2.30;;;12.50;1.00;;;;;;5021038;28;20502;-79
2021/04/22 14:15:30;;;;;;;6.77;3.33;;;12.30;1.00;;;;;;5037168;28;20449;-77
2021/04/22 14:18:00;;;;;;;7.47;2.33;;;12.30;1.00;;;;;;5035195;28;20460;-78
2021/04/22 14:20:27;;;;;;;11.07;3.60;;;12.50;1.00;;;;;;5035433;28;20513;-77
2021/04/22 14:22:58;;;;;;;9.60;4.07;;;12.70;1.00;;;;;;5037608;28;20514;-77
2021/04/22 14:25:25;;;;;;;9.70;4.10;;;13.40;1.00;;;;;;5019341;28;20446;-78
2021/04/22 14:27:52;;;;;;;8.67;2.50;;;14.80;1.00;;;;;;5038421;28;20481;-79
2021/04/22 14:30:20;;;;;;;15.13;4.93;;;15.80;1.00;;;;;;5020836;28;20497;-77
2021/04/22 14:32:49;;;;;;;6.67;2.33;;;15.60;1.00;;;;;;5050812;28;20484;-76
2021/04/22 14:35:16;;;;;;;9.10;4.80;;;15.10;1.00;;;;;;5043367;28;20429;-77
2021/04/22 14:37:43;;;;;;;10.37;4.30;;;14.90;1.00;;;;;;5037193;28;20442;-77
2021/04/22 14:40:12;;;;;;;21.63;4.43;;;14.40;1.00;;;;;;5021330;28;20489;-78